Time;durP1;ratioP1;P1;durP2;ratioP2;P2;SDS_P1;SDS_P2;PMS_P1;PMS_P2;Temp;Humidity;BMP_temperature;BMP_pressure;BME280_temperature;BME280_humidity;BME280_pressure;Samples;Min_cycle;Max_cycle;Signal;HPM_P1;HPM_P2
2022/06/06 00:00:05;;;;;;;130.43;40.47;;;;;;;20.27;100.00;101237.41;5030067;28;20041;-50
2022/06/06 00:02:37;;;;;;;122.27;40.47;;;;;;;19.31;100.00;101234.56;5019699;28;20282;-51
2022/06/06 00:05:04;;;;;;;;;;;;;;;20.32;100.00;101239.38;5022361;28;20269;-53
2022/06/06 00:07:29;;;;;;;124.23;38.20;;;;;;;21.08;100.00;101228.84;5026314;28;19974;-51
2022/06/06 00:09:55;;;;;;;120.70;37.67;;;;;;;19.83;100.00;101243.53;5015861;28;20284;-49
2022/06/06 00:12:23;;;;;;;112.10;35.70;;;;;;;20.45;100.00;101249.06;5027719;28;20050;-49
2022/06/06 00:14:49;;;;;;;115.93;35.20;;;;;;;20.27;100.00;101242.84;5020734;28;20029;-50
2022/06/06 00:17:14;;;;;;;104.63;34.63;;;;;;;20.01;100.00;101231.63;5021182;28;20290;-52
2022/06/06 00:19:40;;;;;;;93.33;30.90;;;;;;;19.67;100.00;101233.53;5026428;28;20067;-51
2022/06/06 00:22:06;;;;;;;104.75;33.53;;;;;;;18.76;100.00;101228.66;5015631;28;20054;-50
2022/06/06 00:24:32;;;;;;;101.53;30.35;;;;;;;19.20;100.00;101236.25;5026871;28;20038;-50
2022/06/06 00:26:59;;;;;;;100.43;32.63;;;;;;;19.22;100.00;101222.47;5020854;28;20097;-51
2022/06/06 00:29:26;;;;;;;103.90;34.28;;;;;;;19.31;100.00;101231.84;5019527;28;20101;-53
2022/06/06 00:34:49;;;;;;;99.23;33.83;;;;;;;18.99;100.00;101218.81;5016751;28;20343;-51
2022/06/06 00:37:35;;;;;;;96.93;30.00;;;;;;;18.95;100.00;101222.22;5022715;28;20292;-52
2022/06/06 00:40:01;;;;;;;99.20;32.43;;;;;;;18.99;100.00;101218.81;5026239;28;20275;-49
2022/06/06 00:42:37;;;;;;;88.37;27.70;;;;;;;19.18;100.00;101226.75;5014776;28;20288;-52
2022/06/06 00:45:33;;;;;;;102.18;31.92;;;;;;;19.61;100.00;101214.47;5025789;28;20294;-51
2022/06/06 00:48:15;;;;;;;93.77;31.57;;;;;;;19.27;100.00;101203.59;5015941;28;20046;-53
2022/06/06 00:51:04;;;;;;;88.37;30.60;;;;;;;19.12;100.00;101208.72;5020419;28;20334;-55
2022/06/06 00:53:39;;;;;;;102.13;30.10;;;;;;;19.23;100.00;101207.03;5011544;28;20303;-51
2022/06/06 00:56:14;;;;;;;96.60;32.63;;;;;;;18.83;100.00;101214.97;5023881;28;20286;-52
2022/06/06 00:58:40;;;;;;;91.07;28.53;;;;;;;19.10;100.00;101219.00;5031317;28;20275;-54
2022/06/06 01:01:08;;;;;;;96.37;31.67;;;;;;;19.28;100.00;101209.84;5014817;28;20280;-50
2022/06/06 01:03:37;;;;;;;103.67;31.20;;;;;;;19.60;100.00;101217.41;5025499;28;20271;-52
2022/06/06 01:06:06;;;;;;;97.50;30.63;;;;;;;20.06;100.00;101214.56;5020319;28;20275;-53
2022/06/06 01:08:35;;;;;;;83.77;29.20;;;;;;;19.53;100.00;101214.84;5031034;28;20279;-52
2022/06/06 01:11:01;;;;;;;102.23;31.70;;;;;;;20.00;100.00;101210.16;5016665;28;20271;-51
2022/06/06 01:13:27;;;;;;;95.43;30.58;;;;;;;20.15;100.00;101212.25;5027465;28;20287;-52
2022/06/06 01:16:11;;;;;;;93.53;30.52;;;;;;;20.56;100.00;101220.91;5015906;28;20038;-50
2022/06/06 01:18:59;;;;;;;101.40;29.67;;;;;;;20.25;100.00;101209.69;5022741;28;20038;-49
2022/06/06 01:21:47;;;;;;;93.30;29.27;;;;;;;19.53;100.00;101201.28;5025957;28;20279;-53
2022/06/06 01:24:44;;;;;;;100.43;33.43;;;;;;;19.68;100.00;101213.47;5014934;28;20025;-53
2022/06/06 01:27:34;;;;;;;98.93;31.80;;;;;;;19.88;100.00;101215.66;5019821;28;20260;-53
2022/06/06 01:30:07;;;;;;;98.00;32.27;;;;;;;20.02;100.00;101214.25;5027495;28;20274;-49
2022/06/06 01:32:38;;;;;;;94.10;29.57;;;;;;;19.85;100.00;101210.72;5015797;28;20283;-54
2022/06/06 01:35:05;;;;;;;100.60;31.70;;;;;;;19.84;100.00;101209.91;5022539;28;20282;-52
2022/06/06 01:37:37;;;;;;;94.40;30.90;;;;;;;20.01;100.00;101218.06;5023110;28;20275;-52
2022/06/06 01:40:07;;;;;;;106.20;31.73;;;;;;;19.91;100.00;101201.59;5015383;28;20291;-52
2022/06/06 01:42:46;;;;;;;110.37;33.57;;;;;;;19.99;100.00;101209.34;5027402;28;20264;-54
2022/06/06 01:45:33;;;;;;;99.80;33.47;;;;;;;20.24;100.00;101209.91;5011261;28;20272;-54
2022/06/06 01:48:09;;;;;;;103.97;32.25;;;;;;;20.33;100.00;101203.00;5024766;28;20279;-54
2022/06/06 01:50:37;;;;;;;98.90;31.52;;;;;;;20.56;100.00;101217.41;5014669;28;20042;-53
2022/06/06 01:53:06;;;;;;;109.37;33.33;;;;;;;19.98;100.00;101213.13;5025588;28;20043;-51
2022/06/06 01:55:35;;;;;;;107.47;33.43;;;;;;;20.11;100.00;101211.94;5002614;28;20290;-50
2022/06/06 01:58:06;;;;;;;98.23;31.37;;;;;;;19.67;100.00;101196.34;5001534;28;20288;-53
2022/06/06 02:00:34;;;;;;;104.60;32.17;;;;;;;19.88;100.00;101202.06;5025742;28;20275;-53
2022/06/06 02:03:01;;;;;;;102.40;32.20;;;;;;;19.81;100.00;101201.44;5028087;28;20286;-53
2022/06/06 02:05:28;;;;;;;101.97;33.50;;;;;;;19.84;100.00;101212.63;5015871;28;20268;-53
2022/06/06 02:07:54;;;;;;;108.77;32.87;;;;;;;20.08;100.00;101198.03;5021974;28;20034;-50
2022/06/06 02:10:21;;;;;;;110.53;31.10;;;;;;;20.06;100.00;101199.13;5022270;28;20355;-53
2022/06/06 02:12:46;;;;;;;95.43;32.47;;;;;;;20.30;100.00;101198.88;5018518;28;20103;-51
2022/06/06 02:15:15;;;;;;;92.43;30.88;;;;;;;19.60;100.00;101203.84;5031967;28;20279;-52
2022/06/06 02:17:41;;;;;;;88.53;32.37;;;;;;;19.52;100.00;101205.06;5018835;28;20066;-54
2022/06/06 02:20:11;;;;;;;90.30;31.30;;;;;;;19.70;100.00;101198.56;5026588;28;20280;-53
2022/06/06 02:22:37;;;;;;;92.57;32.10;;;;;;;18.80;100.00;101199.22;5025659;28;20097;-50
2022/06/06 02:25:04;;;;;;;85.50;31.40;;;;;;;19.50;100.00;101196.34;5018622;28;20272;-52
2022/06/06 02:27:30;;;;;;;93.93;32.70;;;;;;;19.83;100.00;101194.69;5030403;28;20066;-50
2022/06/06 02:29:55;;;;;;;101.60;29.58;;;;;;;19.64;100.00;101191.41;5019871;28;20267;-52
2022/06/06 02:32:21;;;;;;;94.15;31.52;;;;;;;19.31;100.00;101193.88;5023888;28;20058;-50
2022/06/06 02:34:47;;;;;;;95.60;31.70;;;;;;;19.60;100.00;101188.38;5026990;28;20052;-52
2022/06/06 02:37:13;;;;;;;93.97;32.60;;;;;;;19.65;100.00;101186.84;5017282;28;20066;-54
2022/06/06 02:39:40;;;;;;;102.90;33.90;;;;;;;19.13;100.00;101183.25;5029774;28;20054;-54
2022/06/06 02:42:05;;;;;;;96.50;31.00;;;;;;;19.30;100.00;101188.72;5021214;28;20274;-49
2022/06/06 02:44:31;;;;;;;100.40;35.13;;;;;;;19.24;100.00;101186.97;5022876;28;20071;-49
2022/06/06 02:46:56;;;;;;;108.03;34.25;;;;;;;19.50;100.00;101174.66;5028177;28;20052;-50
2022/06/06 02:49:22;;;;;;;96.47;32.40;;;;;;;19.35;100.00;101184.19;5016966;28;20035;-48
2022/06/06 02:51:48;;;;;;;100.90;34.58;;;;;;;19.22;100.00;101176.38;5028633;28;20089;-52
2022/06/06 02:54:13;;;;;;;119.80;37.25;;;;;;;19.34;100.00;101176.31;5021732;28;20042;-52
2022/06/06 02:56:39;;;;;;;103.18;34.05;;;;;;;19.18;100.00;101169.81;5022921;28;20048;-53
2022/06/06 02:59:07;;;;;;;170.27;38.42;;;;;;;18.97;100.00;101161.31;5027237;28;20042;-53
2022/06/06 03:01:34;;;;;;;105.03;32.37;;;;;;;19.45;100.00;101155.59;5033017;28;20112;-52
2022/06/06 03:04:00;;;;;;;111.15;33.97;;;;;;;19.31;100.00;101164.06;5016224;28;20352;-52
2022/06/06 03:06:31;;;;;;;109.17;34.90;;;;;;;19.32;100.00;101171.13;5028421;28;20031;-50
2022/06/06 03:09:15;;;;;;;120.57;34.60;;;;;;;19.13;100.00;101170.53;5022624;28;20093;-52
2022/06/06 03:11:55;;;;;;;114.43;33.27;;;;;;;19.01;100.00;101165.19;5018038;28;20328;-51
2022/06/06 03:14:48;;;;;;;127.20;36.50;;;;;;;19.42;100.00;101175.09;5017819;28;20284;-52
2022/06/06 03:23:31;;;;;;;114.40;33.90;;;;;;;19.30;100.00;101167.84;5019146;28;20264;-52
2022/06/06 03:25:56;;;;;;;115.73;31.80;;;;;;;19.18;100.00;101175.25;4960858;28;20278;-48
2022/06/06 03:28:40;;;;;;;114.90;33.83;;;;;;;19.02;100.00;101172.25;5029376;28;20353;-50
2022/06/06 03:31:11;;;;;;;117.23;33.97;;;;;;;18.88;100.00;101168.16;5021212;28;20041;-52
2022/06/06 03:34:07;;;;;;;120.37;34.40;;;;;;;18.99;100.00;101164.63;5020581;28;20291;-53
2022/06/06 03:36:41;;;;;;;114.80;32.67;;;;;;;19.20;100.00;101164.97;5031689;28;20268;-49
2022/06/06 03:39:43;;;;;;;115.87;34.07;;;;;;;19.52;100.00;101172.53;5027140;28;20270;-54
2022/06/06 03:42:12;;;;;;;118.40;35.90;;;;;;;19.14;100.00;101182.19;4996628;28;20275;-53
2022/06/06 03:44:53;;;;;;;122.37;39.63;;;;;;;19.24;100.00;101171.53;5015310;28;20272;-52
2022/06/06 03:47:33;;;;;;;124.63;41.43;;;;;;;18.95;100.00;101168.03;5019733;28;20268;-51
2022/06/06 03:50:25;;;;;;;149.90;47.00;;;;;;;19.19;100.00;101176.88;5020743;28;20378;-50
2022/06/06 03:53:07;;;;;;;148.10;47.60;;;;;;;19.18;100.00;101175.25;5029709;28;20287;-51
2022/06/06 03:55:54;;;;;;;150.20;51.33;;;;;;;19.03;100.00;101171.19;5019751;28;20272;-49
2022/06/06 03:58:22;;;;;;;145.03;48.67;;;;;;;18.62;100.00;101173.09;5019889;28;20283;-51
2022/06/06 04:00:49;;;;;;;133.93;45.23;;;;;;;18.42;100.00;101174.34;5028612;28;20260;-51
2022/06/06 04:03:16;;;;;;;149.07;50.30;;;;;;;18.34;100.00;101182.84;5013723;28;20265;-53
2022/06/06 04:05:43;;;;;;;143.97;48.50;;;;;;;18.16;100.00;101179.22;5016802;28;20343;-49
2022/06/06 04:08:09;;;;;;;149.83;51.87;;;;;;;18.54;100.00;101187.84;5026056;28;20274;-53
2022/06/06 04:10:42;;;;;;;135.30;47.93;;;;;;;18.63;100.00;101180.16;5022069;28;20278;-50
2022/06/06 04:13:24;;;;;;;138.07;50.10;;;;;;;18.55;100.00;101175.94;5019878;28;20295;-52
2022/06/06 04:16:11;;;;;;;127.63;48.60;;;;;;;19.05;100.00;101192.63;5029866;28;20287;-53
2022/06/06 04:18:43;;;;;;;129.53;47.83;;;;;;;18.88;100.00;101197.97;5012799;28;20350;-53
2022/06/06 04:21:25;;;;;;;111.47;42.73;;;;;;;18.37;100.00;101203.22;5005847;28;20274;-49
2022/06/06 04:23:56;;;;;;;109.50;41.93;;;;;;;19.13;100.00;101185.97;5016316;28;20292;-50
2022/06/06 04:26:24;;;;;;;101.83;40.13;;;;;;;19.48;100.00;101202.00;5016353;28;20271;-50
2022/06/06 04:29:05;;;;;;;103.30;41.17;;;;;;;19.34;100.00;101198.81;5024426;28;20382;-50
2022/06/06 04:31:41;;;;;;;95.73;40.40;;;;;;;18.43;100.00;101213.09;5025680;28;20287;-51
2022/06/06 04:34:13;;;;;;;94.28;38.22;;;;;;;18.19;100.00;101199.59;5014826;28;20371;-49
2022/06/06 04:36:50;;;;;;;94.53;40.07;;;;;;;19.05;100.00;101200.78;5026095;28;20038;-50
2022/06/06 04:39:41;;;;;;;94.27;38.77;;;;;;;19.04;100.00;101199.94;5012536;28;20322;-53
2022/06/06 04:42:47;;;;;;;91.00;38.03;;;;;;;19.18;100.00;101210.47;5029395;28;20340;-51
2022/06/06 04:45:18;;;;;;;91.97;36.17;;;;;;;19.73;100.00;101211.66;5021736;28;20313;-53
2022/06/06 04:47:46;;;;;;;81.77;35.20;;;;;;;18.69;100.00;101217.16;5018938;28;20282;-56
2022/06/06 04:50:17;;;;;;;82.27;36.20;;;;;;;18.44;100.00;101212.84;5028509;28;20288;-53
2022/06/06 04:52:47;;;;;;;80.53;36.37;;;;;;;18.45;100.00;101211.81;5014813;28;20307;-48
2022/06/06 04:55:15;;;;;;;73.00;33.30;;;;;;;19.49;100.00;101216.41;5026793;28;20275;-50
2022/06/06 04:57:45;;;;;;;70.33;33.33;;;;;;;19.25;100.00;101211.13;5020720;28;20297;-49
2022/06/06 05:00:11;;;;;;;66.73;32.07;;;;;;;18.94;100.00;101216.00;5019268;28;20268;-52
2022/06/06 05:02:37;;;;;;;71.40;31.63;;;;;;;18.87;100.00;101220.72;5028025;28;20267;-51
2022/06/06 05:05:05;;;;;;;67.57;30.73;;;;;;;18.88;100.00;101223.19;5012081;28;20106;-54
2022/06/06 05:08:22;;;;;;;60.83;28.37;;;;;;;18.71;100.00;101219.59;5018759;28;20100;-51
2022/06/06 05:11:09;;;;;;;49.87;25.33;;;;;;;18.52;100.00;101229.78;5032712;28;20294;-55
2022/06/06 05:13:45;;;;;;;49.63;24.38;;;;;;;18.67;100.00;101230.09;5032714;28;20355;-51
2022/06/06 05:16:21;;;;;;;;;;;;;;;19.70;100.00;101227.59;5028799;28;20049;-52
2022/06/06 05:18:55;;;;;;;48.80;23.77;;;;;;;18.60;100.00;101229.41;5014847;28;19917;-52
2022/06/06 05:21:40;;;;;;;45.57;23.53;;;;;;;19.10;100.00;101235.25;5031314;28;20260;-51
2022/06/06 05:24:22;;;;;;;39.67;22.23;;;;;;;19.64;100.00;101237.53;5021684;28;20268;-49
2022/06/06 05:27:12;;;;;;;39.10;20.43;;;;;;;19.31;100.00;101234.56;5010323;28;20272;-51
2022/06/06 05:30:09;;;;;;;42.77;20.50;;;;;;;18.04;100.00;101230.66;5016361;28;20272;-53
2022/06/06 05:32:52;;;;;;;38.40;19.07;;;;;;;18.21;100.00;101235.38;5019370;28;20284;-50
2022/06/06 05:35:21;;;;;;;42.13;20.47;;;;;;;18.98;100.00;101240.69;5027163;28;20332;-52
2022/06/06 05:38:11;;;;;;;35.07;19.13;;;;;;;18.02;100.00;101235.50;5014917;28;20291;-51
2022/06/06 05:40:51;;;;;;;34.80;17.67;;;;;;;17.57;100.00;101239.56;5021020;28;20296;-52
2022/06/06 05:43:40;;;;;;;34.90;17.50;;;;;;;19.33;100.00;101229.72;5011679;28;20314;-53
2022/06/06 05:46:42;;;;;;;32.77;17.57;;;;;;;19.77;100.00;101236.38;5019737;28;20271;-53
2022/06/06 05:49:53;;;;;;;28.87;15.80;;;;;;;19.44;100.00;101251.59;5020599;28;20268;-51
2022/06/06 05:52:37;;;;;;;32.20;16.50;;;;;;;19.86;100.00;101240.34;5022328;28;20295;-53
2022/06/06 05:55:08;;;;;;;32.83;16.57;;;;;;;20.22;100.00;101242.78;5021470;28;20278;-51
2022/06/06 05:58:11;;;;;;;27.10;15.27;;;;;;;19.91;100.00;101245.03;5031116;28;20292;-54
2022/06/06 06:00:55;;;;;;;32.00;14.97;;;;;;;19.92;100.00;101250.22;5014942;28;20270;-54
2022/06/06 06:03:40;;;;;;;25.10;14.20;;;;;;;19.52;100.00;101253.88;5027319;28;20282;-52
2022/06/06 06:06:21;;;;;;;23.20;13.53;;;;;;;20.13;100.00;101253.25;5017003;28;20264;-52
2022/06/06 06:08:50;;;;;;;24.67;13.83;;;;;;;20.17;100.00;101251.66;5028394;28;20294;-52
2022/06/06 06:11:39;;;;;;;21.40;13.77;;;;;;;19.35;100.00;101259.31;5024664;28;20279;-53
2022/06/06 06:14:32;;;;;;;22.37;12.83;;;;;;;19.09;100.00;101263.44;5018335;28;20291;-52
2022/06/06 06:17:00;;;;;;;24.13;12.80;;;;;;;20.07;100.00;101256.97;5019831;28;20303;-54
2022/06/06 06:19:43;;;;;;;30.50;13.13;;;;;;;19.61;100.00;101266.00;5026380;28;20268;-51
2022/06/06 06:22:10;;;;;;;27.53;13.77;;;;;;;19.83;100.00;101259.81;5014538;28;20272;-52
2022/06/06 06:24:39;;;;;;;28.13;14.40;;;;;;;20.19;100.00;101268.53;5030587;28;20299;-53
2022/06/06 06:27:05;;;;;;;27.30;14.87;;;;;;;20.49;100.00;101272.72;5018032;28;20340;-51
2022/06/06 06:29:31;;;;;;;29.43;13.93;;;;;;;20.02;100.00;101271.28;5026710;28;20340;-50
2022/06/06 06:32:15;;;;;;;26.70;13.95;;;;;;;20.46;100.00;101264.28;5024765;28;20297;-51
2022/06/06 06:35:01;;;;;;;24.00;14.17;;;;;;;19.87;100.00;101306.28;5017742;28;20042;-57
2022/06/06 06:37:35;;;;;;;21.27;13.27;;;;;;;19.73;100.00;101271.34;5027299;28;20339;-49
2022/06/06 06:40:01;;;;;;;19.40;12.73;;;;;;;20.01;100.00;101276.94;5014318;28;20276;-48
2022/06/06 06:42:56;;;;;;;25.20;13.98;;;;;;;20.04;100.00;101277.28;5027774;28;20285;-49
2022/06/06 06:45:29;;;;;;;19.60;13.60;;;;;;;20.02;100.00;101271.28;5016785;28;20065;-51
2022/06/06 06:48:06;;;;;;;26.30;13.93;;;;;;;20.25;100.00;101290.31;5026610;28;20272;-51
2022/06/06 06:50:58;;;;;;;26.17;13.05;;;;;;;20.15;100.00;101288.28;5024913;28;20286;-52
2022/06/06 06:53:55;;;;;;;22.10;12.30;;;;;;;21.57;100.00;101294.03;5032650;28;20046;-50
2022/06/06 06:56:36;;;;;;;19.33;11.00;;;;;;;19.53;100.00;101300.84;5022130;28;20301;-52
2022/06/06 06:59:33;;;;;;;15.93;10.07;;;;;;;21.37;100.00;101304.72;5019363;28;20042;-49
2022/06/06 07:11:20;;;;;;;15.67;10.03;;;;;;;20.15;100.00;101301.84;5024431;28;20338;-53
2022/06/06 07:14:30;;;;;;;15.77;9.33;;;;;;;19.76;100.00;101294.44;5016950;28;20284;-52
2022/06/06 07:16:59;;;;;;;21.87;9.20;;;;;;;20.52;100.00;101304.00;4953889;29;20293;-51
2022/06/06 07:19:31;;;;;;;12.03;7.87;;;;;;;20.02;100.00;101305.72;4953982;28;20301;-49
2022/06/06 07:22:00;;;;;;;13.07;6.93;;;;;;;20.28;100.00;101298.78;4987822;28;20290;-52
2022/06/06 07:24:27;;;;;;;18.10;7.30;;;;;;;20.57;100.00;101305.97;5026870;28;20086;-52
2022/06/06 07:26:52;;;;;;;;;;;;;;;21.68;100.00;101313.19;5023934;28;20279;-51
2022/06/06 07:29:20;;;;;;;16.07;6.93;;;;;;;20.97;100.00;101299.41;5019749;28;19913;-54
2022/06/06 07:32:01;;;;;;;18.30;7.17;;;;;;;20.61;100.00;101323.41;5029641;28;20063;-49
2022/06/06 07:34:39;;;;;;;15.33;7.03;;;;;;;19.94;100.00;101308.88;5019858;28;20034;-49
2022/06/06 07:37:23;;;;;;;10.73;6.00;;;;;;;19.96;100.00;101301.28;5021321;28;20050;-50
2022/06/06 07:40:01;;;;;;;9.33;5.17;;;;;;;20.57;100.00;101303.25;5030724;28;20045;-51
2022/06/06 07:42:56;;;;;;;11.00;4.53;;;;;;;19.95;100.00;101308.59;5032706;28;20030;-50
2022/06/06 07:45:35;;;;;;;14.70;4.70;;;;;;;19.88;100.00;101319.63;5032805;28;20061;-49
2022/06/06 07:48:35;;;;;;;10.37;4.80;;;;;;;21.31;100.00;101312.84;5029932;28;20064;-48
2022/06/06 07:51:13;;;;;;;7.83;3.50;;;;;;;19.84;100.00;101315.75;5024089;28;20030;-51
2022/06/06 07:54:17;;;;;;;8.00;3.50;;;;;;;19.94;100.00;101322.44;5015584;28;20042;-51
2022/06/06 07:56:51;;;;;;;4.00;2.67;;;;;;;19.92;100.00;101318.06;5013252;28;20101;-56
2022/06/06 07:59:38;;;;;;;5.67;2.67;;;;;;;20.25;100.00;101321.03;5026022;28;20034;-51
2022/06/06 08:02:27;;;;;;;5.73;2.53;;;;;;;19.86;100.00;101329.91;5013079;28;20035;-51
2022/06/06 08:05:31;;;;;;;6.67;2.60;;;;;;;19.70;100.00;101331.50;5022487;28;20045;-57
2022/06/06 08:08:06;;;;;;;9.37;3.30;;;;;;;19.32;100.00;101341.16;5031260;28;20046;-51
2022/06/06 08:10:44;;;;;;;4.90;3.50;;;;;;;19.79;100.00;101329.22;5032222;28;20038;-55
2022/06/06 08:13:26;;;;;;;4.20;3.13;;;;;;;19.87;100.00;101319.84;5020193;28;20039;-50
2022/06/06 08:16:12;;;;;;;5.17;2.37;;;;;;;19.82;100.00;101311.63;5028580;28;20038;-51
2022/06/06 08:19:02;;;;;;;9.00;2.60;;;;;;;19.70;100.00;101315.22;5020597;28;20068;-52
2022/06/06 08:21:34;;;;;;;3.50;2.00;;;;;;;20.01;100.00;101314.94;5017722;28;20037;-51
2022/06/06 08:24:03;;;;;;;11.10;2.50;;;;;;;19.89;100.00;101318.53;5015014;28;20039;-53
2022/06/06 08:26:34;;;;;;;3.87;1.93;;;;;;;19.83;100.00;101313.28;5025304;28;20034;-50
2022/06/06 08:29:01;;;;;;;8.27;1.93;;;;;;;19.69;100.00;101326.34;5022743;28;20063;-51
2022/06/06 08:31:27;;;;;;;3.43;2.00;;;;;;;19.71;100.00;101316.06;5017531;28;20064;-50
2022/06/06 08:33:53;;;;;;;7.82;1.80;;;;;;;20.40;100.00;101323.13;5028334;28;20049;-53
2022/06/06 08:36:31;;;;;;;5.32;1.70;;;;;;;20.54;100.00;101322.78;5017302;28;20097;-54
2022/06/06 08:39:03;;;;;;;8.57;1.67;;;;;;;19.82;100.00;101309.72;5021441;28;20062;-51
2022/06/06 08:42:01;;;;;;;5.97;2.07;;;;;;;20.13;100.00;101318.41;5012092;28;20118;-53
2022/06/06 08:44:37;;;;;;;4.50;2.42;;;;;;;20.56;100.00;101298.91;5018466;28;20100;-54
2022/06/06 08:47:11;;;;;;;7.40;1.83;;;;;;;20.86;100.00;101320.22;5020761;28;20067;-52
2022/06/06 08:52:53;;;;;;;4.77;1.87;;;;;;;20.31;100.00;101303.72;5018863;28;20042;-53
2022/06/06 08:55:32;;;;;;;5.33;1.60;;;;;;;20.67;100.00;101297.94;5018641;28;20034;-52
2022/06/06 08:58:12;;;;;;;4.93;1.33;;;;;;;20.43;100.00;101305.53;5027495;28;20033;-55
2022/06/06 09:00:40;;;;;;;3.07;1.53;;;;;;;21.05;100.00;101293.53;5029185;28;20034;-49
2022/06/06 09:03:28;;;;;;;6.07;2.00;;;;;;;21.49;100.00;101300.78;5030270;28;20022;-49
2022/06/06 09:06:24;;;;;;;4.43;1.30;;;;;;;21.46;100.00;101305.94;5029333;28;20033;-52
2022/06/06 09:09:05;;;;;;;4.67;1.57;;;;;;;21.45;100.00;101296.09;5030227;28;20041;-52
2022/06/06 09:11:48;;;;;;;5.03;1.60;;;;;;;21.58;100.00;101292.16;5030650;28;20037;-53
2022/06/06 09:15:00;;;;;;;5.57;1.60;;;;;;;21.49;100.00;101292.59;5030810;28;20038;-50
2022/06/06 09:17:44;;;;;;;6.97;1.50;;;;;;;21.47;100.00;101292.03;5030656;28;20041;-53
2022/06/06 09:20:28;;;;;;;4.10;1.40;;;;;;;21.50;100.00;101296.16;5027766;28;20094;-56
2022/06/06 09:23:03;;;;;;;4.00;1.57;;;;;;;21.73;100.00;101289.56;5025926;28;20048;-48
2022/06/06 09:25:34;;;;;;;3.40;1.57;;;;;;;21.58;100.00;101303.84;5010443;28;20030;-52
2022/06/06 09:28:02;;;;;;;5.17;1.60;;;;;;;21.63;100.00;101300.34;5027319;28;20041;-49
2022/06/06 09:30:53;;;;;;;3.43;1.40;;;;;;;21.90;100.00;101299.50;5030314;28;20033;-52
2022/06/06 09:33:40;;;;;;;3.43;1.27;;;;;;;21.38;100.00;101300.94;5030132;28;20053;-53
2022/06/06 09:36:42;;;;;;;3.17;1.67;;;;;;;21.60;100.00;101309.84;5030353;28;20042;-52
2022/06/06 09:39:21;;;;;;;3.57;1.97;;;;;;;22.36;100.00;101307.16;5022811;28;20042;-51
2022/06/06 09:42:19;;;;;;;3.83;1.40;;;;;;;22.19;100.00;101294.53;5027201;28;20033;-51
2022/06/06 09:45:22;;;;;;;3.17;1.58;;;;;;;21.88;100.00;101280.69;5030475;28;20044;-50
2022/06/06 09:47:56;;;;;;;6.30;1.90;;;;;;;21.86;100.00;101274.69;5014003;28;20105;-54
2022/06/06 09:50:36;;;;;;;6.07;1.70;;;;;;;22.75;100.00;101293.19;5030424;28;20098;-52
2022/06/06 09:53:13;;;;;;;4.93;1.63;;;;;;;22.80;100.00;101283.41;5027590;28;20045;-52
2022/06/06 09:59:27;;;;;;;8.20;1.70;;;;;;;24.62;100.00;101288.59;5028365;28;20034;-50
2022/06/06 10:02:37;;;;;;;3.93;1.57;;;;;;;24.31;100.00;101287.88;5022305;28;20084;-52
2022/06/06 10:05:24;;;;;;;3.03;1.37;;;;;;;23.85;100.00;101275.91;5026714;28;20097;-51
2022/06/06 10:08:21;;;;;;;4.00;1.50;;;;;;;23.17;100.00;101275.03;5027940;28;20022;-53
2022/06/06 10:11:19;;;;;;;3.47;1.37;;;;;;;22.28;100.00;101285.84;5027762;28;20049;-51
2022/06/06 10:13:57;;;;;;;3.13;1.70;;;;;;;24.00;100.00;101266.06;5027990;28;20061;-53
2022/06/06 10:16:50;;;;;;;4.60;1.90;;;;;;;24.91;100.00;101265.22;5028127;28;20034;-52
2022/06/06 10:19:41;;;;;;;12.03;5.87;;;;;;;25.12;100.00;101268.66;5018314;28;20046;-53
2022/06/06 10:22:37;;;;;;;2.70;1.70;;;;;;;25.00;100.00;101265.44;5026892;28;20045;-55
2022/06/06 10:25:30;;;;;;;10.77;2.93;;;;;;;23.96;100.00;101268.53;5020567;28;20034;-52
2022/06/06 10:28:20;;;;;;;4.67;1.90;;;;;;;23.53;100.00;101263.38;5029328;28;20034;-49
2022/06/06 10:30:51;;;;;;;7.13;2.07;;;;;;;23.63;100.00;101270.72;5021419;28;20110;-49
2022/06/06 10:33:27;;;;;;;6.30;2.30;;;;;;;23.14;100.00;101272.84;5025076;28;20098;-53
2022/06/06 10:36:11;;;;;;;7.15;3.30;;;;;;;23.92;100.00;101262.00;5021690;28;20045;-53
2022/06/06 10:38:46;;;;;;;4.13;1.93;;;;;;;25.28;100.00;101282.25;5030406;28;20046;-51
2022/06/06 10:41:38;;;;;;;6.37;2.07;;;;;;;26.30;100.00;101273.44;5033079;28;20083;-51
2022/06/06 10:44:29;;;;;;;1.83;1.33;;;;;;;26.73;100.00;101275.34;5032281;28;20632;-52
2022/06/06 10:47:25;;;;;;;3.17;2.00;;;;;;;26.10;100.00;101266.19;5028787;28;20049;-52
2022/06/06 10:50:18;;;;;;;4.97;2.60;;;;;;;25.87;100.00;101282.31;4991014;28;20076;-52
2022/06/06 10:53:24;;;;;;;7.67;2.30;;;;;;;25.68;100.00;101299.47;5029658;28;20051;-53
2022/06/06 10:56:28;;;;;;;2.63;1.80;;;;;;;26.34;100.00;101263.50;5032463;28;20034;-54
2022/06/06 10:59:05;;;;;;;4.10;2.50;;;;;;;26.43;100.00;101269.97;5022839;28;20048;-54
2022/06/06 11:01:46;;;;;;;8.33;3.67;;;;;;;24.98;100.00;101264.91;5019008;28;20052;-55
2022/06/06 11:04:30;;;;;;;3.73;2.20;;;;;;;25.20;100.00;101269.97;5017204;28;20033;-53
2022/06/06 11:07:27;;;;;;;3.73;2.37;;;;;;;25.27;100.00;101270.47;5027011;28;20030;-55
2022/06/06 11:10:30;;;;;;;42.27;18.07;;;;;;;25.69;100.00;101259.22;5024259;28;20047;-56
2022/06/06 11:13:05;;;;;;;4.70;2.40;;;;;;;24.94;100.00;101250.16;5030169;28;20102;-56
2022/06/06 11:15:38;;;;;;;15.23;3.70;;;;;;;24.12;100.00;101252.16;5032730;28;20046;-52
2022/06/06 11:18:42;;;;;;;10.63;3.73;;;;;;;22.17;100.00;101244.13;5016125;28;20038;-54
2022/06/06 11:21:11;;;;;;;13.27;5.13;;;;;;;21.83;100.00;101260.81;5031979;28;20087;-50
2022/06/06 11:23:44;;;;;;;14.50;5.20;;;;;;;20.54;100.00;101246.72;5033297;28;20042;-54
2022/06/06 11:26:22;;;;;;;7.90;6.30;;;;;;;21.31;100.00;101236.69;5029659;28;20037;-53
2022/06/06 11:29:06;;;;;;;10.20;6.47;;;;;;;20.67;100.00;101234.66;5021074;28;20045;-52
2022/06/06 11:31:53;;;;;;;12.87;6.40;;;;;;;20.91;100.00;101225.16;5018771;28;20038;-55
2022/06/06 11:34:52;;;;;;;19.17;9.00;;;;;;;21.00;100.00;101222.81;5016836;28;20042;-53
2022/06/06 11:37:42;;;;;;;12.90;6.67;;;;;;;21.12;100.00;101221.81;5020356;28;20038;-54
2022/06/06 11:40:45;;;;;;;8.30;5.50;;;;;;;20.88;100.00;101227.56;5029486;28;20057;-52
2022/06/06 11:43:30;;;;;;;8.07;5.77;;;;;;;20.84;100.00;101231.88;5012948;28;20038;-55
2022/06/06 11:46:20;;;;;;;10.87;6.20;;;;;;;21.69;100.00;101236.75;5028947;28;20041;-53
2022/06/06 11:48:54;;;;;;;11.57;5.10;;;;;;;21.82;100.00;101229.22;5020485;28;20045;-53
2022/06/06 11:51:44;;;;;;;7.97;4.93;;;;;;;22.00;100.00;101219.81;5020117;28;20052;-52
2022/06/06 11:54:15;;;;;;;9.03;4.70;;;;;;;21.28;100.00;101234.47;5028665;28;20078;-55
2022/06/06 11:56:59;;;;;;;8.27;4.43;;;;;;;21.31;100.00;101220.38;5019910;28;20045;-56
2022/06/06 12:00:03;;;;;;;12.83;4.40;;;;;;;20.53;100.00;101250.47;5028722;28;20034;-55
2022/06/06 12:03:04;;;;;;;37.63;5.90;;;;;;;20.12;100.00;101240.75;5018040;28;20044;-52
2022/06/06 12:05:51;;;;;;;11.27;6.10;;;;;;;19.49;100.00;101232.69;5018507;28;20049;-53
2022/06/06 12:08:26;;;;;;;12.23;7.20;;;;;;;19.46;100.00;101254.88;5016378;28;20038;-52
2022/06/06 12:11:27;;;;;;;21.50;11.13;;;;;;;19.86;100.00;101253.91;5023848;28;20045;-52
2022/06/06 12:13:59;;;;;;;11.40;6.90;;;;;;;19.46;100.00;101261.13;5011870;28;20068;-54
2022/06/06 12:17:22;;;;;;;6.00;4.00;;;;;;;19.66;100.00;101256.28;5017590;28;20030;-54
2022/06/06 12:20:00;;;;;;;8.63;5.30;;;;;;;19.30;100.00;101268.16;4952975;29;20282;-52
2022/06/06 12:23:07;;;;;;;9.10;3.97;;;;;;;19.07;100.00;101258.28;4938508;29;20305;-49
2022/06/06 12:26:02;;;;;;;9.10;4.23;;;;;;;19.77;100.00;101253.50;5005092;28;20275;-50